Time;durP1;ratioP1;P1;durP2;ratioP2;P2;SDS_P1;SDS_P2;PMS_P1;PMS_P2;Temp;Humidity;BMP_temperature;BMP_pressure;BME280_temperature;BME280_humidity;BME280_pressure;Samples;Min_cycle;Max_cycle;Signal;HPM_P1;HPM_P2
2021/11/25 00:00:22;;;;;;;;;;;;;;;15.47;56.59;99843.34;5012379;28;19937;-40
2021/11/25 00:02:48;;;;;;;;;;;;;;;15.47;56.84;99835.31;5030171;28;19928;-41
2021/11/25 00:05:13;;;;;;;;;;;;;;;15.46;56.69;99831.78;5032177;28;19913;-39
2021/11/25 00:07:40;;;;;;;;;;;;;;;15.46;56.73;99829.09;5032380;28;20321;-39
2021/11/25 00:10:06;;;;;;;;;;;;;;;15.46;56.60;99812.19;5031832;28;20389;-41
2021/11/25 00:12:31;;;;;;;;;;;;;;;15.46;56.81;99817.53;5031791;28;20436;-39
2021/11/25 00:14:57;;;;;;;;;;;;;;;15.45;56.55;99821.16;5032072;28;19917;-39
2021/11/25 00:17:23;;;;;;;;;;;;;;;15.44;56.89;99820.31;5031979;28;19917;-40
2021/11/25 00:19:48;;;;;;;;;;;;;;;15.44;56.74;99809.59;5031903;28;19913;-39
2021/11/25 00:22:14;;;;;;;;;;;;;;;15.43;56.59;99805.22;5031876;28;20382;-40
2021/11/25 00:24:39;;;;;;;;;;;;;;;15.44;56.81;99806.94;5031910;28;19963;-39
2021/11/25 00:27:04;;;;;;;;;;;;;;;15.44;56.61;99806.06;5032024;28;20318;-39
2021/11/25 00:29:30;;;;;;;;;;;;;;;15.43;56.66;99796.34;5031827;28;19940;-39
2021/11/25 00:31:55;;;;;;;;;;;;;;;15.44;56.50;99798.88;5031431;28;19917;-39
2021/11/25 00:34:21;;;;;;;;;;;;;;;15.43;56.40;99791.84;5031445;28;19917;-39
2021/11/25 00:36:46;;;;;;;;;;;;;;;15.43;56.85;99794.50;5031833;28;19913;-39
2021/11/25 00:39:11;;;;;;;;;;;;;;;15.43;56.71;99791.84;5031891;28;19964;-39
2021/11/25 00:41:37;;;;;;;;;;;;;;;15.42;56.87;99800.84;5031337;28;19917;-39
2021/11/25 00:44:02;;;;;;;;;;;;;;;15.41;56.64;99800.94;5031435;28;19917;-39
2021/11/25 00:46:28;;;;;;;;;;;;;;;15.43;56.65;99801.69;5013910;28;19913;-39
2021/11/25 00:48:53;;;;;;;;;;;;;;;15.42;56.48;99790.13;5031440;28;19918;-41
2021/11/25 00:51:18;;;;;;;;;;;;;;;15.42;56.47;99791.97;5031406;28;19921;-39
2021/11/25 00:53:44;;;;;;;;;;;;;;;15.41;56.90;99791.09;5031758;28;19924;-40
2021/11/25 00:56:09;;;;;;;;;;;;;;;15.43;56.75;99790.97;5031558;28;19917;-42
2021/11/25 00:58:34;;;;;;;;;;;;;;;15.42;56.73;99787.47;5031407;28;19924;-40
2021/11/25 01:01:00;;;;;;;;;;;;;;;15.41;56.49;99791.09;5031094;28;19921;-41
2021/11/25 01:03:25;;;;;;;;;;;;;;;15.41;56.77;99784.88;5031597;28;19995;-40
2021/11/25 01:05:51;;;;;;;;;;;;;;;15.41;56.64;99784.88;5031891;28;19940;-39
2021/11/25 01:08:16;;;;;;;;;;;;;;;15.40;56.80;99784.03;5031366;28;20382;-41
2021/11/25 01:10:42;;;;;;;;;;;;;;;15.41;56.48;99785.72;5031347;28;19927;-39
2021/11/25 01:13:08;;;;;;;;;;;;;;;15.41;56.66;99788.41;5032314;28;20294;-40
2021/11/25 01:15:33;;;;;;;;;;;;;;;15.40;56.75;99781.34;5035020;28;19928;-40
2021/11/25 01:18:00;;;;;;;;;;;;;;;15.40;56.74;99777.81;5017591;28;19913;-40
2021/11/25 01:20:25;;;;;;;;;;;;;;;15.40;56.83;99783.19;5035076;28;19913;-42
2021/11/25 01:22:51;;;;;;;;;;;;;;;15.41;56.73;99779.53;5035429;28;19919;-40
2021/11/25 01:25:16;;;;;;;;;;;;;;;15.40;56.54;99773.31;5034556;28;19924;-39
2021/11/25 01:27:41;;;;;;;;;;;;;;;15.39;56.54;99771.63;5035263;28;19913;-39
2021/11/25 01:30:08;;;;;;;;;;;;;;;15.41;56.58;99768.81;5034939;28;19913;-39
2021/11/25 01:32:33;;;;;;;;;;;;;;;15.40;56.67;99761.75;5034794;28;19917;-40
2021/11/25 01:34:58;;;;;;;;;;;;;;;15.40;56.70;99770.63;5034771;28;20032;-40
2021/11/25 01:37:27;;;;;;;;;;;;;;;15.40;56.49;99770.63;5034962;28;19999;-39
2021/11/25 01:39:52;;;;;;;;;;;;;;;15.40;56.61;99772.47;5034894;28;20000;-39
2021/11/25 01:42:17;;;;;;;;;;;;;;;15.40;56.70;99776.00;5034646;28;19952;-39
2021/11/25 01:44:43;;;;;;;;;;;;;;;15.39;56.39;99774.28;5016854;28;19917;-39
2021/11/25 01:47:08;;;;;;;;;;;;;;;15.39;56.48;99776.13;5034770;28;19913;-39
2021/11/25 01:49:33;;;;;;;;;;;;;;;15.40;56.43;99769.78;5017042;28;19967;-40
2021/11/25 01:51:59;;;;;;;;;;;;;;;15.40;56.67;99772.47;5034440;28;19917;-40
2021/11/25 01:54:24;;;;;;;;;;;;;;;15.39;56.62;99768.94;5034466;28;19924;-41
2021/11/25 01:56:50;;;;;;;;;;;;;;;15.38;56.59;99767.22;5016722;28;19917;-39
2021/11/25 01:59:16;;;;;;;;;;;;;;;15.38;56.82;99764.56;5016711;28;19913;-39
2021/11/25 02:01:41;;;;;;;;;;;;;;;15.39;56.59;99758.22;5034103;28;19940;-41
2021/11/25 02:04:07;;;;;;;;;;;;;;;15.40;56.54;99762.59;5034579;28;19925;-39
2021/11/25 02:06:32;;;;;;;;;;;;;;;15.39;56.38;99758.22;5034268;28;19913;-39
2021/11/25 02:08:59;;;;;;;;;;;;;;;15.39;56.61;99747.50;5034513;28;20006;-39
2021/11/25 02:11:25;;;;;;;;;;;;;;;15.38;56.71;99735.09;5034292;28;20280;-40
2021/11/25 02:13:51;;;;;;;;;;;;;;;15.40;56.69;99745.69;5034472;28;19944;-40
2021/11/25 02:16:16;;;;;;;;;;;;;;;15.39;56.69;99739.47;5033743;28;19925;-39
2021/11/25 02:18:42;;;;;;;;;;;;;;;15.40;56.81;99740.31;5034212;28;19913;-40
2021/11/25 02:21:07;;;;;;;;;;;;;;;15.39;56.52;99733.28;5034128;28;20408;-39
2021/11/25 02:23:32;;;;;;;;;;;;;;;15.39;56.58;99735.94;5016527;28;19913;-40
2021/11/25 02:25:58;;;;;;;;;;;;;;;15.37;56.36;99730.69;5032542;28;19913;-39
2021/11/25 02:28:27;;;;;;;;;;;;;;;15.38;56.71;99727.06;5033887;28;20410;-39
2021/11/25 02:30:52;;;;;;;;;;;;;;;15.38;56.55;99727.06;5016216;28;19920;-39
2021/11/25 02:33:18;;;;;;;;;;;;;;;15.38;56.45;99715.47;5033912;28;20374;-39
2021/11/25 02:35:44;;;;;;;;;;;;;;;15.36;56.52;99721.81;5033675;28;20393;-39
2021/11/25 02:38:11;;;;;;;;;;;;;;;15.37;56.76;99722.66;5033834;28;19964;-39
2021/11/25 02:40:39;;;;;;;;;;;;;;;15.37;56.78;99722.66;5033475;28;20463;-39
2021/11/25 02:43:06;;;;;;;;;;;;;;;15.36;56.64;99721.81;5033542;28;19913;-39
2021/11/25 02:45:42;;;;;;;;;;;;;;;15.37;56.62;99717.28;5033512;28;19920;-40
2021/11/25 02:48:08;;;;;;;;;;;;;;;15.36;56.50;99711.09;5032676;28;20302;-39
2021/11/25 02:50:33;;;;;;;;;;;;;;;15.36;56.68;99712.91;5033464;28;19913;-39
2021/11/25 02:52:58;;;;;;;;;;;;;;;15.35;56.77;99709.41;5033148;28;19925;-39
2021/11/25 02:55:24;;;;;;;;;;;;;;;15.35;56.70;99716.56;5033665;28;19913;-39
2021/11/25 02:57:49;;;;;;;;;;;;;;;15.35;56.66;99705.88;5033317;28;20401;-39
2021/11/25 03:00:20;;;;;;;;;;;;;;;15.34;56.45;99702.34;5033150;28;19913;-39
2021/11/25 03:02:46;;;;;;;;;;;;;;;15.34;56.62;99710.38;5032754;28;20329;-41
2021/11/25 03:05:11;;;;;;;;;;;;;;;15.34;56.32;99709.53;5015511;28;19920;-41
2021/11/25 03:07:37;;;;;;;;;;;;;;;15.34;56.46;99706.84;5033273;28;19928;-40
2021/11/25 03:10:03;;;;;;;;;;;;;;;15.34;56.27;99699.66;5032862;28;20325;-41
2021/11/25 03:12:29;;;;;;;;;;;;;;;15.34;56.58;99696.13;5032935;28;19917;-40
2021/11/25 03:14:54;;;;;;;;;;;;;;;15.34;56.55;99693.47;5033747;28;20332;-40
2021/11/25 03:17:19;;;;;;;;;;;;;;;15.32;56.53;99672.13;5031500;28;19921;-40
2021/11/25 03:19:45;;;;;;;;;;;;;;;15.32;56.62;99666.78;5032175;28;20019;-40
2021/11/25 03:22:10;;;;;;;;;;;;;;;15.33;56.53;99664.94;5032870;28;19982;-40
2021/11/25 03:24:35;;;;;;;;;;;;;;;15.33;56.47;99656.91;5033246;28;19920;-39
2021/11/25 03:27:01;;;;;;;;;;;;;;;15.32;56.85;99655.22;5032650;28;19916;-40
2021/11/25 03:29:27;;;;;;;;;;;;;;;15.33;56.68;99654.25;5032748;28;20369;-39
2021/11/25 03:31:52;;;;;;;;;;;;;;;15.32;56.63;99645.34;5032593;28;20443;-41
2021/11/25 03:34:18;;;;;;;;;;;;;;;15.33;56.63;99648.88;5032185;28;20099;-40
2021/11/25 03:36:43;;;;;;;;;;;;;;;15.33;56.68;99652.41;5032398;28;20008;-41
2021/11/25 03:39:08;;;;;;;;;;;;;;;15.33;56.50;99651.56;5032692;28;19913;-40
2021/11/25 03:41:35;;;;;;;;;;;;;;;15.31;56.55;99654.38;5032205;28;20027;-40
2021/11/25 03:44:00;;;;;;;;;;;;;;;15.31;56.73;99651.69;5032552;28;19948;-42
2021/11/25 03:46:26;;;;;;;;;;;;;;;15.32;56.56;99652.53;5032525;28;19998;-41
2021/11/25 03:48:51;;;;;;;;;;;;;;;15.31;56.80;99654.38;5032240;28;19964;-40
2021/11/25 03:51:17;;;;;;;;;;;;;;;15.30;56.41;99654.47;5032386;28;19913;-41
2021/11/25 03:53:44;;;;;;;;;;;;;;;15.30;56.44;99657.16;5014742;28;19932;-41
2021/11/25 03:56:10;;;;;;;;;;;;;;;15.29;56.48;99653.63;5014717;28;20019;-40
2021/11/25 03:58:35;;;;;;;;;;;;;;;15.29;56.69;99655.44;5032156;28;20362;-41
2021/11/25 04:01:01;;;;;;;;;;;;;;;15.29;56.54;99653.63;5031905;28;19921;-41
2021/11/25 04:03:26;;;;;;;;;;;;;;;15.29;56.37;99656.28;5031678;28;19971;-39
2021/11/25 04:05:52;;;;;;;;;;;;;;;15.30;56.70;99654.47;5032370;28;19913;-39
2021/11/25 04:08:17;;;;;;;;;;;;;;;15.30;56.70;99646.44;5014243;28;19921;-39
2021/11/25 04:10:43;;;;;;;;;;;;;;;15.29;56.72;99655.44;5032025;28;19913;-39
2021/11/25 04:13:09;;;;;;;;;;;;;;;15.29;56.51;99652.78;5014160;28;20000;-39
2021/11/25 04:15:34;;;;;;;;;;;;;;;15.28;56.42;99649.25;5032099;28;19920;-38
2021/11/25 04:17:59;;;;;;;;;;;;;;;15.28;56.63;99648.41;5031760;28;19928;-39
2021/11/25 04:20:25;;;;;;;;;;;;;;;15.27;56.63;99642.19;5031593;28;20408;-39
2021/11/25 04:22:51;;;;;;;;;;;;;;;15.28;56.50;99640.38;5032669;28;19913;-39
2021/11/25 04:25:16;;;;;;;;;;;;;;;15.28;56.60;99643.03;5032236;28;19917;-39
2021/11/25 04:27:42;;;;;;;;;;;;;;;15.27;56.71;99644.03;5032100;28;20282;-40
2021/11/25 04:30:23;;;;;;;;;;;;;;;15.26;56.72;99653.88;5031662;28;19917;-40
2021/11/25 04:35:36;;;;;;;;;;;;;;;15.26;56.57;99655.69;5031787;28;19919;-39
2021/11/25 04:38:03;;;;;;;;;;;;;;;15.26;56.64;99653.88;5031722;28;19913;-40
2021/11/25 04:40:33;;;;;;;;;;;;;;;15.26;56.54;99651.19;5031770;28;19913;-40
2021/11/25 04:42:58;;;;;;;;;;;;;;;15.27;56.65;99647.53;5031818;28;19917;-39
2021/11/25 04:45:24;;;;;;;;;;;;;;;15.27;56.61;99641.34;5031714;28;19913;-39
2021/11/25 04:47:49;;;;;;;;;;;;;;;15.27;56.46;99641.34;5032342;28;19917;-41
2021/11/25 04:50:15;;;;;;;;;;;;;;;15.27;56.43;99641.34;5033978;28;19919;-40
2021/11/25 04:52:40;;;;;;;;;;;;;;;15.27;56.60;99630.63;5016069;28;20533;-41
2021/11/25 04:55:06;;;;;;;;;;;;;;;15.26;56.41;99634.25;5015895;28;19914;-40
2021/11/25 04:57:31;;;;;;;;;;;;;;;15.26;56.66;99631.56;5015907;28;20013;-40
2021/11/25 04:59:56;;;;;;;;;;;;;;;15.25;56.58;99627.22;5015678;28;19960;-39
2021/11/25 05:02:21;;;;;;;;;;;;;;;15.25;56.17;99640.59;5031697;28;19921;-40
2021/11/25 05:04:47;;;;;;;;;;;;;;;15.25;56.37;99644.13;5035613;28;19913;-40
2021/11/25 05:07:12;;;;;;;;;;;;;;;15.26;56.62;99644.97;5035182;28;19924;-39
2021/11/25 05:09:37;;;;;;;;;;;;;;;15.26;56.46;99636.94;5035488;28;19913;-40
2021/11/25 05:12:03;;;;;;;;;;;;;;;15.25;56.72;99638.75;5035315;28;20399;-39
2021/11/25 05:14:28;;;;;;;;;;;;;;;15.25;56.81;99637.91;5035766;28;20008;-39
2021/11/25 05:16:54;;;;;;;;;;;;;;;15.23;56.48;99635.38;5055336;28;19966;-39
2021/11/25 05:19:19;;;;;;;;;;;;;;;15.25;56.45;99627.22;5055250;28;19913;-40
2021/11/25 05:21:46;;;;;;;;;;;;;;;15.25;56.62;99632.56;5055293;28;19919;-39
2021/11/25 05:24:11;;;;;;;;;;;;;;;15.25;56.55;99637.91;5055266;28;19912;-39
2021/11/25 05:26:36;;;;;;;;;;;;;;;15.25;56.46;99632.56;5040016;28;20361;-40
2021/11/25 05:29:02;;;;;;;;;;;;;;;15.25;56.67;99632.56;5017360;28;19913;-38
2021/11/25 05:31:28;;;;;;;;;;;;;;;15.24;56.68;99636.22;5034891;28;19983;-39
2021/11/25 05:33:53;;;;;;;;;;;;;;;15.23;56.45;99643.41;5035047;28;19968;-39
2021/11/25 05:36:19;;;;;;;;;;;;;;;15.25;56.40;99648.63;5034927;28;19953;-40
2021/11/25 05:38:44;;;;;;;;;;;;;;;15.23;56.19;99651.44;5035034;28;19913;-39
2021/11/25 05:41:09;;;;;;;;;;;;;;;15.24;56.33;99641.56;5016962;28;19913;-39
2021/11/25 05:43:35;;;;;;;;;;;;;;;15.23;56.60;99640.72;5034732;28;19920;-39
2021/11/25 05:46:00;;;;;;;;;;;;;;;15.23;56.41;99637.19;5034685;28;19921;-39
2021/11/25 05:48:27;;;;;;;;;;;;;;;15.23;56.57;99634.53;5034806;28;19971;-40
2021/11/25 05:50:52;;;;;;;;;;;;;;;15.24;56.35;99630.88;5034432;28;20302;-39
2021/11/25 05:53:20;;;;;;;;;;;;;;;15.23;56.34;99626.50;5034643;28;20370;-42
2021/11/25 05:55:45;;;;;;;;;;;;;;;15.24;56.49;99622.84;5034596;28;20392;-40
2021/11/25 05:58:11;;;;;;;;;;;;;;;15.24;56.55;99621.00;5034552;28;19957;-39
2021/11/25 06:00:36;;;;;;;;;;;;;;;15.23;56.35;99626.50;5016203;28;19937;-41
2021/11/25 06:03:02;;;;;;;;;;;;;;;15.23;56.53;99629.16;5034538;28;19936;-40
2021/11/25 06:05:27;;;;;;;;;;;;;;;15.23;56.45;99621.13;5034502;28;20278;-39
2021/11/25 06:07:53;;;;;;;;;;;;;;;15.24;56.50;99625.50;5034445;28;19996;-39
2021/11/25 06:10:20;;;;;;;;;;;;;;;15.24;56.50;99625.50;5016388;28;19967;-39
2021/11/25 06:12:45;;;;;;;;;;;;;;;15.22;56.49;99622.06;5033796;28;19923;-39
2021/11/25 06:15:11;;;;;;;;;;;;;;;15.23;56.61;99624.66;5034295;28;19917;-40
2021/11/25 06:17:36;;;;;;;;;;;;;;;15.20;56.42;99622.22;5033858;28;19944;-39
2021/11/25 06:20:03;;;;;;;;;;;;;;;15.20;56.32;99621.34;5034092;28;19943;-39
2021/11/25 06:22:28;;;;;;;;;;;;;;;15.21;56.61;99625.72;5016365;28;19913;-41
2021/11/25 06:24:54;;;;;;;;;;;;;;;15.20;56.60;99618.69;5034215;28;19951;-40
2021/11/25 06:27:19;;;;;;;;;;;;;;;15.20;56.38;99627.56;5033718;28;19939;-39
2021/11/25 06:29:44;;;;;;;;;;;;;;;15.20;56.46;99621.34;5033996;28;19962;-39
2021/11/25 06:32:10;;;;;;;;;;;;;;;15.19;56.31;99623.19;5033874;28;19923;-39
2021/11/25 06:34:36;;;;;;;;;;;;;;;15.21;56.59;99620.38;5016035;28;19936;-39
2021/11/25 06:37:01;;;;;;;;;;;;;;;15.19;56.71;99615.16;5033741;28;19967;-40
2021/11/25 06:39:26;;;;;;;;;;;;;;;15.20;56.32;99618.69;5033730;28;19913;-40
2021/11/25 06:41:52;;;;;;;;;;;;;;;15.19;56.36;99616.97;5033572;28;19979;-39
2021/11/25 06:44:17;;;;;;;;;;;;;;;15.19;56.42;99616.97;5033769;28;20365;-40
2021/11/25 06:46:43;;;;;;;;;;;;;;;15.18;56.43;99600.03;5033391;28;19992;-40
2021/11/25 06:49:08;;;;;;;;;;;;;;;15.17;56.53;99592.16;5015905;28;19956;-40
2021/11/25 06:51:33;;;;;;;;;;;;;;;15.17;56.34;99601.03;5034021;28;19920;-41
2021/11/25 06:53:59;;;;;;;;;;;;;;;15.19;56.29;99600.91;5033745;28;20316;-42
2021/11/25 06:56:24;;;;;;;;;;;;;;;15.18;56.34;99593.84;5033030;28;19913;-43
2021/11/25 06:58:51;;;;;;;;;;;;;;;15.18;56.39;99599.19;5015657;28;20456;-40
2021/11/25 07:01:16;;;;;;;;;;;;;;;15.16;56.67;99612.72;5032738;28;19921;-40
2021/11/25 07:03:42;;;;;;;;;;;;;;;15.17;56.55;99614.41;5033308;28;20263;-40
2021/11/25 07:06:07;;;;;;;;;;;;;;;15.17;56.25;99624.25;5033087;28;19917;-39
2021/11/25 07:08:33;;;;;;;;;;;;;;;15.16;56.32;99618.06;5033332;28;20397;-40
2021/11/25 07:10:58;;;;;;;;;;;;;;;15.16;56.41;99612.72;5032492;28;20003;-40
2021/11/25 07:13:24;;;;;;;;;;;;;;;15.16;56.46;99611.84;5016476;28;20027;-40
2021/11/25 07:15:50;;;;;;;;;;;;;;;15.17;56.51;99616.22;5033226;28;19924;-40
2021/11/25 07:18:15;;;;;;;;;;;;;;;15.16;56.16;99625.25;5024614;28;19917;-41
2021/11/25 07:20:41;;;;;;;;;;;;;;;15.16;56.20;99627.91;5032823;28;19928;-43
2021/11/25 07:23:06;;;;;;;;;;;;;;;15.17;56.33;99635.81;5032838;28;19923;-40
2021/11/25 07:25:31;;;;;;;;;;;;;;;15.16;56.35;99633.28;5013205;28;19920;-40
2021/11/25 07:27:57;;;;;;;;;;;;;;;15.15;56.39;99635.09;5030787;28;19917;-40
2021/11/25 07:30:22;;;;;;;;;;;;;;;15.15;56.29;99643.13;5033203;28;19913;-39
2021/11/25 07:32:48;;;;;;;;;;;;;;;15.15;56.29;99650.28;5032709;28;19917;-40
2021/11/25 07:35:15;;;;;;;;;;;;;;;15.15;56.45;99658.31;5032941;28;19917;-40
2021/11/25 07:37:40;;;;;;;;;;;;;;;15.15;56.36;99656.53;5014742;28;19921;-39
2021/11/25 07:40:07;;;;;;;;;;;;;;;15.14;56.50;99660.13;5032583;28;19996;-40
2021/11/25 07:42:32;;;;;;;;;;;;;;;15.14;56.40;99668.16;5032524;28;19913;-39
2021/11/25 07:44:58;;;;;;;;;;;;;;;15.13;56.41;99666.47;5032753;28;19926;-39
2021/11/25 07:47:32;;;;;;;;;;;;;;;15.14;56.20;99668.16;5033179;28;19978;-41
2021/11/25 07:49:59;;;;;;;;;;;;;;;15.14;56.41;99668.16;5032233;28;20305;-40
2021/11/25 07:52:24;;;;;;;;;;;;;;;15.14;56.28;99670.00;5032443;28;19917;-39
2021/11/25 07:54:50;;;;;;;;;;;;;;;15.15;56.53;99682.41;5032553;28;19979;-40
2021/11/25 07:57:15;;;;;;;;;;;;;;;15.13;56.55;99669.16;5032270;28;19918;-40
2021/11/25 07:59:40;;;;;;;;;;;;;;;15.14;56.08;99675.34;5032378;28;19924;-39
2021/11/25 08:02:07;;;;;;;;;;;;;;;15.24;56.36;99679.06;5032375;28;19979;-37
2021/11/25 08:04:32;;;;;;;;;;;;;;;15.26;56.47;99679.78;5032116;28;19959;-36
2021/11/25 08:06:58;;;;;;;;;;;;;;;15.25;56.56;99680.75;5028530;28;19950;-37
2021/11/25 08:09:23;;;;;;;;;;;;;;;15.25;56.29;99678.06;5031046;28;20006;-39
2021/11/25 08:11:48;;;;;;;;;;;;;;;15.29;56.48;99666.16;5031514;28;19943;-36
2021/11/25 08:14:14;;;;;;;;;;;;;;;15.33;56.14;99656.91;5013314;28;19921;-35
2021/11/25 08:16:39;;;;;;;;;;;;;;;15.33;55.93;99655.09;5011322;28;20362;-35
2021/11/25 08:19:05;;;;;;;;;;;;;;;15.39;55.96;99651.09;5024570;28;19913;-35
2021/11/25 08:21:31;;;;;;;;;;;;;;;15.44;55.80;99653.41;5007407;28;19949;-36
2021/11/25 08:23:56;;;;;;;;;;;;;;;15.49;55.56;99656.59;5030122;28;20354;-38
2021/11/25 08:26:22;;;;;;;;;;;;;;;15.49;55.42;99657.47;5031458;28;19964;-36
2021/11/25 08:28:47;;;;;;;;;;;;;;;15.48;55.42;99657.56;5031536;28;19962;-36
2021/11/25 08:31:13;;;;;;;;;;;;;;;15.49;55.61;99668.19;5029216;28;20008;-36
2021/11/25 08:33:38;;;;;;;;;;;;;;;15.49;55.22;99662.81;5029830;28;19921;-36
2021/11/25 08:36:04;;;;;;;;;;;;;;;15.49;55.40;99667.31;5012550;28;19974;-35
2021/11/25 08:38:31;;;;;;;;;;;;;;;15.48;55.50;99669.13;5030061;28;20007;-36
2021/11/25 08:40:56;;;;;;;;;;;;;;;15.45;55.41;99668.50;5031589;28;19913;-35
2021/11/25 08:43:22;;;;;;;;;;;;;;;15.41;55.73;99667.03;5030210;28;19924;-35
2021/11/25 08:45:48;;;;;;;;;;;;;;;15.38;56.09;99661.91;5031412;28;20007;-35
2021/11/25 08:48:14;;;;;;;;;;;;;;;15.33;55.83;99668.47;5030565;28;19913;-36
2021/11/25 08:50:41;;;;;;;;;;;;;;;15.32;56.03;99679.31;5031279;28;19925;-36
2021/11/25 08:53:06;;;;;;;;;;;;;;;15.29;55.80;99672.38;5023908;28;19921;-36
2021/11/25 08:55:34;;;;;;;;;;;;;;;15.27;55.97;99678.81;5031176;28;20287;-36
2021/11/25 08:58:00;;;;;;;;;;;;;;;15.26;56.05;99677.97;5031210;28;19914;-35
2021/11/25 09:00:26;;;;;;;;;;;;;;;15.24;55.94;99674.53;5013346;28;19923;-36
2021/11/25 09:02:52;;;;;;;;;;;;;;;15.23;55.95;99672.84;5031693;28;19917;-36
2021/11/25 09:05:18;;;;;;;;;;;;;;;15.23;56.27;99666.66;5030077;28;20573;-35
2021/11/25 09:07:43;;;;;;;;;;;;;;;15.22;56.34;99675.63;5029506;28;19921;-36
2021/11/25 09:10:09;;;;;;;;;;;;;;;15.20;56.24;99683.78;5029634;28;20385;-35
2021/11/25 09:12:34;;;;;;;;;;;;;;;15.21;56.29;99676.59;5026680;28;19974;-35
2021/11/25 09:15:00;;;;;;;;;;;;;;;15.19;56.12;99678.56;5029522;28;19917;-35
2021/11/25 09:17:25;;;;;;;;;;;;;;;15.19;56.46;99690.13;5030236;28;19920;-35
2021/11/25 09:19:50;;;;;;;;;;;;;;;15.18;56.30;99676.81;5022938;28;20362;-36
2021/11/25 09:22:16;;;;;;;;;;;;;;;15.17;56.23;99681.31;5029026;28;19928;-35
2021/11/25 09:24:41;;;;;;;;;;;;;;;15.18;56.29;99685.72;5027940;28;19917;-37
2021/11/25 09:27:07;;;;;;;;;;;;;;;15.19;56.42;99691.94;5010806;28;19913;-37
2021/11/25 09:29:32;;;;;;;;;;;;;;;15.18;56.44;99687.53;5027824;28;20400;-38
2021/11/25 09:31:58;;;;;;;;;;;;;;;15.20;56.36;99685.59;5029821;28;19928;-37
2021/11/25 09:34:23;;;;;;;;;;;;;;;15.23;56.28;99688.91;5031767;28;19921;-37
2021/11/25 09:36:48;;;;;;;;;;;;;;;15.26;56.13;99685.13;5029042;28;20332;-37
2021/11/25 09:39:14;;;;;;;;;;;;;;;15.29;55.96;99683.06;5034286;28;20377;-37
2021/11/25 09:41:39;;;;;;;;;;;;;;;15.30;55.89;99689.28;5034372;28;20336;-37
2021/11/25 09:44:05;;;;;;;;;;;;;;;15.30;55.54;99681.25;5033416;28;20306;-37
2021/11/25 09:46:31;;;;;;;;;;;;;;;15.32;55.79;99679.31;5019003;28;20188;-37
2021/11/25 09:48:57;;;;;;;;;;;;;;;15.32;56.05;99682.00;5034239;28;20371;-37
2021/11/25 09:51:24;;;;;;;;;;;;;;;15.34;55.65;99680.06;5034252;28;19917;-37
2021/11/25 09:53:50;;;;;;;;;;;;;;;15.33;55.64;99676.50;5034462;28;19917;-37
2021/11/25 09:56:15;;;;;;;;;;;;;;;15.34;55.81;99686.28;5031392;28;19950;-37
2021/11/25 09:58:41;;;;;;;;;;;;;;;15.35;55.78;99685.28;5034064;28;19920;-37
2021/11/25 10:01:14;;;;;;;;;;;;;;;15.35;55.72;99681.78;5032324;28;20001;-35
2021/11/25 10:03:42;;;;;;;;;;;;;;;15.34;55.60;99680.06;5034206;28;20434;-37
2021/11/25 10:06:08;;;;;;;;;;;;;;;15.33;55.75;99675.66;5034015;28;20003;-37
2021/11/25 10:08:38;;;;;;;;;;;;;;;15.35;55.69;99676.41;5034303;28;20381;-37
2021/11/25 10:11:03;;;;;;;;;;;;;;;15.44;55.63;99678.38;5033876;28;19913;-37
2021/11/25 10:13:34;;;;;;;;;;;;;;;15.50;55.31;99669.88;5034182;28;19917;-37
2021/11/25 10:16:00;;;;;;;;;;;;;;;15.48;55.14;99671.81;5033693;28;20388;-37
2021/11/25 10:18:25;;;;;;;;;;;;;;;15.48;55.15;99671.81;5014294;28;19960;-37
2021/11/25 10:20:52;;;;;;;;;;;;;;;15.48;55.39;99668.28;5029230;28;19956;-37
2021/11/25 10:23:21;;;;;;;;;;;;;;;15.50;55.04;99666.34;5033882;28;19913;-37
2021/11/25 10:25:57;;;;;;;;;;;;;;;15.51;55.46;99666.22;5033377;28;20530;-37
2021/11/25 10:28:31;;;;;;;;;;;;;;;15.49;55.20;99660.16;5013193;28;19914;-37
2021/11/25 10:31:00;;;;;;;;;;;;;;;15.46;55.61;99652.34;5016278;28;19913;-37
2021/11/25 10:33:29;;;;;;;;;;;;;;;15.43;55.33;99649.91;5033790;28;19924;-37
2021/11/25 10:39:25;;;;;;;;;;;;;;;15.42;55.59;99655.38;5030713;28;19917;-37
2021/11/25 10:41:23;;;;;;;;;;;;;;;15.42;55.33;99647.34;5009274;28;20000;-37
2021/11/25 10:44:01;;;;;;;;;;;;;;;15.40;55.37;99644.78;5013955;28;20271;-38
2021/11/25 10:46:44;;;;;;;;;;;;;;;15.36;55.55;99652.19;5030884;28;19921;-41
2021/11/25 10:49:12;;;;;;;;;;;;;;;15.29;55.82;99644.75;5029990;28;19918;-42
2021/11/25 10:51:38;;;;;;;;;;;;;;;15.28;55.90;99648.41;5031340;28;19975;-40
2021/11/25 10:54:09;;;;;;;;;;;;;;;15.25;56.01;99649.47;5033804;28;19917;-41
2021/11/25 10:56:49;;;;;;;;;;;;;;;15.24;55.95;99646.91;5033101;28;19917;-40
2021/11/25 10:59:16;;;;;;;;;;;;;;;15.22;55.99;99640.81;5030587;28;20301;-41
2021/11/25 11:01:43;;;;;;;;;;;;;;;15.21;56.04;99639.97;5028329;28;19935;-41
2021/11/25 11:04:09;;;;;;;;;;;;;;;15.21;56.01;99631.94;5034199;28;19913;-40
2021/11/25 11:06:35;;;;;;;;;;;;;;;15.20;55.97;99634.75;5033426;28;20369;-40
2021/11/25 11:09:01;;;;;;;;;;;;;;;15.20;56.16;99637.41;5031036;28;19924;-40
2021/11/25 11:11:27;;;;;;;;;;;;;;;15.20;56.14;99637.41;5029132;28;20378;-40
2021/11/25 11:16:49;;;;;;;;;;;;;;;15.21;56.07;99625.72;5025346;28;19913;-40
2021/11/25 11:19:15;;;;;;;;;;;;;;;15.18;56.09;99610.75;5013257;28;20404;-41
2021/11/25 11:21:52;;;;;;;;;;;;;;;15.19;55.95;99612.47;5029036;28;19924;-40
2021/11/25 11:24:21;;;;;;;;;;;;;;;15.20;55.94;99602.63;5030902;28;19924;-40
2021/11/25 11:26:46;;;;;;;;;;;;;;;15.20;55.94;99600.78;5032905;28;19925;-40
2021/11/25 11:29:12;;;;;;;;;;;;;;;15.20;56.23;99587.41;5031077;28;19920;-40
2021/11/25 11:31:38;;;;;;;;;;;;;;;15.20;56.11;99579.38;5027194;28;20000;-40
2021/11/25 11:34:05;;;;;;;;;;;;;;;15.20;56.05;99579.38;5032668;28;19925;-40
2021/11/25 11:36:32;;;;;;;;;;;;;;;15.21;55.93;99585.56;5014668;28;19917;-40
2021/11/25 11:38:59;;;;;;;;;;;;;;;15.21;56.22;99572.19;5030331;28;19952;-40
2021/11/25 11:41:29;;;;;;;;;;;;;;;15.22;56.14;99568.53;5028331;28;20004;-41
2021/11/25 11:43:54;;;;;;;;;;;;;;;15.21;55.90;99572.19;5030923;28;19920;-41
2021/11/25 11:46:20;;;;;;;;;;;;;;;15.22;56.01;99571.22;5014692;28;20290;-40
2021/11/25 11:48:45;;;;;;;;;;;;;;;15.23;55.98;99575.63;5031215;28;19913;-41
2021/11/25 11:51:13;;;;;;;;;;;;;;;15.24;55.80;99582.66;5028011;28;19916;-40
2021/11/25 11:53:39;;;;;;;;;;;;;;;15.24;55.91;99571.97;5030090;28;19975;-40
2021/11/25 11:56:05;;;;;;;;;;;;;;;15.23;55.91;99570.25;5032949;28;19917;-42
2021/11/25 11:58:41;;;;;;;;;;;;;;;15.25;56.00;99573.66;5031447;28;20465;-41
2021/11/25 12:01:15;;;;;;;;;;;;;;;15.25;55.90;99576.34;5028048;28;19925;-42
2021/11/25 12:03:45;;;;;;;;;;;;;;;15.24;55.93;99564.78;5028478;28;19917;-41
2021/11/25 12:06:27;;;;;;;;;;;;;;;15.25;55.83;99561.13;5031850;28;19924;-40
2021/11/25 12:08:52;;;;;;;;;;;;;;;15.25;55.94;99552.25;5029803;28;20008;-42
2021/11/25 12:11:20;;;;;;;;;;;;;;;15.25;56.19;99554.91;5027382;28;19996;-41
2021/11/25 12:13:56;;;;;;;;;;;;;;;15.27;56.00;99559.19;5031912;28;20390;-42
2021/11/25 12:16:22;;;;;;;;;;;;;;;15.26;55.78;99553.94;5032123;28;19917;-40
2021/11/25 12:18:53;;;;;;;;;;;;;;;15.27;55.86;99555.66;5028640;28;19924;-40
2021/11/25 12:21:37;;;;;;;;;;;;;;;15.27;55.96;99539.59;5026161;28;19917;-41
2021/11/25 12:24:10;;;;;;;;;;;;;;;15.27;55.77;99540.44;5030309;28;19927;-40
2021/11/25 12:26:55;;;;;;;;;;;;;;;15.28;55.71;99538.63;5011650;28;19956;-40
2021/11/25 12:29:41;;;;;;;;;;;;;;;15.28;55.96;99522.56;5023955;28;19967;-41
2021/11/25 12:32:41;;;;;;;;;;;;;;;15.28;55.79;99530.59;5001640;28;19913;-40
2021/11/25 12:35:15;;;;;;;;;;;;;;;15.29;55.70;99526.94;5025976;28;19921;-42
2021/11/25 12:37:43;;;;;;;;;;;;;;;15.29;55.75;99522.44;5031330;28;19917;-40
2021/11/25 12:40:15;;;;;;;;;;;;;;;15.30;55.93;99520.59;5031205;28;20396;-40
2021/11/25 12:42:44;;;;;;;;;;;;;;;15.29;55.80;99514.41;5031762;28;19913;-41
2021/11/25 12:45:24;;;;;;;;;;;;;;;15.32;55.73;99513.31;5014478;28;19924;-42
2021/11/25 12:48:05;;;;;;;;;;;;;;;15.31;55.87;99515.13;5032520;28;19913;-41
2021/11/25 12:50:32;;;;;;;;;;;;;;;15.31;55.85;99512.47;5031133;28;19913;-41
2021/11/25 12:53:04;;;;;;;;;;;;;;;15.31;55.82;99507.09;5031616;28;19925;-41